»·PEaware :: PHTIM KPSP-KSAN

PHTIM :: KPSP-KSAN

FLIGHT INFORMATION

Flight Status: Arrived
Operator: Unknown
More flights by this operator :: More flights under this callsign
Pilot: Tim P. (6337)
Aircraft: CESSNA T210 TURBO CENTURION
(T210)
More flights by this aircraft type
Origin: KPSP Palm Springs Intl
United States
Destination: KSAN San Diego Intl-Lindbergh
United States
More flights between these airports :: More routes between these airports
Route: +CATH1 PSP TRM V514 MZB
File this flight plan on PilotEdge
Remarks:
Altitude:
(Current/Filed)
10,000ft
Speed:
(Current/Filed)
160kts
Departed: 04-Jan-19 10:35 AM
Arrived: 04-Jan-19 11:25 AM
Distance/Time
Traveled:
74nm/0:50
Distance/Time
To Go:
Arrived

Flight Plot

Page will automatically refresh every two minutes.

Flight plan parsing failed; only flown route is shown


Map Options




Map Legend


Flown Route
Filed Route
Departure Airport
Arrival Airport
Navaid (VOR, NDB)
Fix

Horizontal Profiles

Position Reports

Time Latitude Longitude Heading Altitude Ground
Speed
04-Jan-19 10:11 33.822483 -116.496000 233 481ft 0kts
04-Jan-19 10:12 33.822483 -116.496000 233 481ft 0kts
04-Jan-19 10:13 33.822483 -116.496000 233 481ft 0kts
04-Jan-19 10:14 33.822483 -116.496000 233 481ft 0kts
04-Jan-19 10:15 33.822483 -116.496000 233 481ft 0kts
04-Jan-19 10:16 33.822483 -116.496000 233 481ft 0kts
04-Jan-19 10:17 33.822483 -116.496000 233 481ft 0kts
04-Jan-19 10:18 33.822483 -116.496000 233 481ft 0kts
04-Jan-19 10:19 33.822483 -116.496000 233 481ft 0kts
04-Jan-19 10:20 33.822483 -116.496000 233 481ft 0kts
04-Jan-19 10:21 33.822483 -116.496000 233 481ft 0kts
04-Jan-19 10:22 33.822483 -116.496000 233 481ft 0kts
04-Jan-19 10:23 33.822483 -116.496000 233 481ft 0kts
04-Jan-19 10:24 33.822483 -116.496000 233 481ft 0kts
04-Jan-19 10:25 33.822483 -116.496000 233 481ft 0kts
04-Jan-19 10:26 33.822483 -116.496000 233 481ft 0kts
04-Jan-19 10:27 33.822483 -116.496000 233 481ft 0kts
04-Jan-19 10:28 33.822483 -116.496000 233 481ft 0kts
04-Jan-19 10:29 33.822483 -116.496000 233 481ft 0kts
04-Jan-19 10:30 33.823162 -116.497682 323 481ft 9kts
04-Jan-19 10:31 33.824568 -116.499657 233 481ft 0kts
04-Jan-19 10:32 33.824568 -116.499657 234 481ft 0kts
04-Jan-19 10:33 33.824568 -116.499657 234 481ft 0kts
04-Jan-19 10:34 33.827585 -116.502921 324 481ft 74kts
04-Jan-19 10:35 33.847170 -116.522562 319 1240ft 102kts
04-Jan-19 10:36 33.868342 -116.546791 316 2163ft 108kts
04-Jan-19 10:37 33.889960 -116.571795 327 3079ft 108kts
04-Jan-19 10:38 33.908713 -116.556916 108 3889ft 110kts
04-Jan-19 10:39 33.898622 -116.523686 112 4799ft 106kts
04-Jan-19 10:40 33.889311 -116.490483 114 5671ft 102kts
04-Jan-19 10:42 33.879024 -116.457990 112 6487ft 104kts
04-Jan-19 10:43 33.868781 -116.425622 115 7315ft 105kts
04-Jan-19 10:44 33.858376 -116.392346 114 8155ft 109kts
04-Jan-19 10:45 33.847762 -116.358112 114 8884ft 111kts
04-Jan-19 10:46 33.837615 -116.322697 113 9641ft 115kts
04-Jan-19 10:47 33.824342 -116.286261 138 10111ft 133kts
04-Jan-19 10:48 33.788809 -116.259573 153 9996ft 159kts
04-Jan-19 10:49 33.750378 -116.232750 152 10023ft 161kts
04-Jan-19 10:50 33.711682 -116.205817 154 9994ft 164kts
04-Jan-19 10:51 33.670911 -116.180598 153 9924ft 168kts
04-Jan-19 10:52 33.631109 -116.153481 152 9936ft 159kts
04-Jan-19 10:53 33.591637 -116.156142 214 10018ft 155kts
04-Jan-19 10:54 33.557055 -116.188189 218 10036ft 156kts
04-Jan-19 10:55 33.523155 -116.221359 219 9909ft 161kts
04-Jan-19 10:56 33.488818 -116.255075 218 9912ft 157kts
04-Jan-19 10:57 33.454095 -116.289243 218 9798ft 161kts
04-Jan-19 10:58 33.419285 -116.320029 216 10086ft 149kts
04-Jan-19 10:59 33.386423 -116.352218 219 10053ft 160kts
04-Jan-19 11:00 33.352211 -116.387484 222 10012ft 161kts
04-Jan-19 11:01 33.316272 -116.418008 218 10046ft 158kts
04-Jan-19 11:02 33.282395 -116.451839 217 10075ft 160kts
04-Jan-19 11:02 33.253519 -116.479392 216 10026ft 159kts
04-Jan-19 11:03 33.218874 -116.512390 214 9923ft 157kts
04-Jan-19 11:04 33.184101 -116.544832 218 9860ft 158kts
04-Jan-19 11:06 33.143937 -116.583060 216 9948ft 156kts
04-Jan-19 11:06 33.110712 -116.592670 181 10018ft 154kts
04-Jan-19 11:07 33.066994 -116.595327 188 9974ft 156kts
04-Jan-19 11:08 33.023695 -116.601814 184 9960ft 159kts
04-Jan-19 11:09 32.978725 -116.607608 188 9787ft 162kts
04-Jan-19 11:10 32.936046 -116.615550 211 9890ft 159kts
04-Jan-19 11:11 32.908533 -116.657184 231 9878ft 158kts
04-Jan-19 11:12 32.882657 -116.699888 232 9853ft 158kts
04-Jan-19 11:13 32.854619 -116.744948 230 9208ft 179kts
04-Jan-19 11:14 32.823693 -116.793513 232 8333ft 185kts
04-Jan-19 11:15 32.795172 -116.841647 231 7258ft 176kts
04-Jan-19 11:16 32.766482 -116.888183 231 6045ft 173kts
04-Jan-19 11:17 32.736672 -116.933742 230 4830ft 175kts
04-Jan-19 11:18 32.708009 -116.977661 229 3940ft 160kts
04-Jan-19 11:19 32.686875 -117.020180 287 3889ft 146kts
04-Jan-19 11:20 32.702341 -117.062560 286 2787ft 131kts
04-Jan-19 11:21 32.712231 -117.101755 284 1757ft 114kts
04-Jan-19 11:22 32.720608 -117.136569 286 946ft 93kts
04-Jan-19 11:23 32.727536 -117.164894 285 367ft 84kts
04-Jan-19 11:24 32.732723 -117.186222 285 18ft 31kts
04-Jan-19 11:25 32.734012 -117.188047 35 18ft 0kts
04-Jan-19 11:26 32.733553 -117.184895 106 18ft 15kts
04-Jan-19 11:27 32.732235 -117.179457 105 17ft 16kts
04-Jan-19 11:28 32.732303 -117.177527 198 20ft 0kts
04-Jan-19 11:29 32.732303 -117.177527 198 20ft 0kts
04-Jan-19 11:30 32.732303 -117.177527 198 20ft 0kts

Navigation Log

Ident Type
Flight plan parsing failed, navigation log unavailable